Česky Dansk Deutsch English Español Suomi Français Magyar Italiano Nederlands norsk Polski Português svenska Türkçe

 

Het Weer

Amman Airport (Jordan)

00:00, 28 juli 2016 (GMT)

NWNNE
WE
SWSSE
Home            
Amman Airport Queen Alia Airport Mafraq Irbid Jerusalem Airport Ben-Gurion International Airport H-5'Safawi Tel Aviv / Sde-Dov Airport Galilee / Pina Sde-Haifa Haifa Guriat Beer-Sheva Damascus Int. Airport Ma'An Beyrouth Aeroport H-4'Irwaished El Arish Ovda Turaif Aqaba Airport Eilat Taba Palmyra

Om een weerknop op uw website of weblog te plaatsen, copieer onderstaande code en plak die in uw pagina. In het eerste vakje staat HTML-code, in het tweede vakje UBB-code.


Add to Google

Details

Visibility: 5000 m, 5.0 km, 16404 ft, 3.1 miles
Het Weer:moderate haze
Temperature:23°C, 73°F
Gefühlte Temperatur:25°C, 77°F
Dew-point:6°C, 43°F
Atmospheric pressure:1010 hPa, 757.6 mmHg, 29.83 inHg, 0.997 atm
Relative humidity:33.3 %
METAR:OJAM 280000Z 00000KT 5000 HZ NSC 23/06 Q1010 NOSIG

Snelkoppelingen

Actuele weersinformatie van de hele wereld. Voeg locaties toe met het plus (+) symbool. Deze snelkoppelingen kunnen worden toegevoegd aan Google.

Lid van de Technetium groep

website free tracking
StatCounter NetStat W3C Validator

17-12-2017 04:46:33
astro.technetium.be money.technetium.be phote.technetium.be tafeltennistafel.technetium.be www.ligfiets.net